createdAt,value
2024-03-26T00:01:52.206Z,99426.71
2024-03-26T00:04:21.705Z,99426.05
2024-03-26T00:06:51.124Z,99426.74
2024-03-26T00:09:20.682Z,99422.40
2024-03-26T00:11:50.162Z,99421.14
2024-03-26T00:14:21.923Z,99419.73
2024-03-26T00:16:51.352Z,99414.61
2024-03-26T00:19:20.832Z,99414.77
2024-03-26T00:21:50.266Z,99413.73
2024-03-26T00:24:19.812Z,99409.17
2024-03-26T00:26:49.297Z,99401.04
2024-03-26T00:29:18.771Z,99400.12
2024-03-26T00:31:48.253Z,99393.69
2024-03-26T00:34:20.106Z,99386.45
2024-03-26T00:36:49.641Z,99386.21
2024-03-26T00:39:19.227Z,99381.21
2024-03-26T00:41:48.801Z,99381.54
2024-03-26T00:44:20.757Z,99379.24
2024-03-26T00:46:50.215Z,99377.77
2024-03-26T00:49:24.952Z,99372.61
2024-03-26T00:51:56.704Z,99367.81
2024-03-26T00:54:28.760Z,99366.13
2024-03-26T00:57:00.260Z,99362.12
2024-03-26T00:59:29.906Z,99354.95
2024-03-26T01:02:01.799Z,99349.19
2024-03-26T01:04:31.300Z,99344.96
2024-03-26T01:07:00.732Z,99339.50
2024-03-26T01:09:30.266Z,99338.92
2024-03-26T01:11:59.686Z,99337.55
2024-03-26T01:14:29.216Z,99332.37
2024-03-26T01:16:58.687Z,99332.17
2024-03-26T01:19:28.199Z,99327.08
2024-03-26T01:21:57.631Z,99321.90
2024-03-26T01:24:27.112Z,99317.09
2024-03-26T01:26:56.652Z,99313.68
2024-03-26T01:29:28.472Z,99311.27
2024-03-26T01:31:57.871Z,99304.84
2024-03-26T01:34:31.862Z,99304.36
2024-03-26T01:37:01.451Z,99301.92
2024-03-26T01:39:30.951Z,99300.05
2024-03-26T01:42:00.402Z,99291.73
2024-03-26T01:44:30.574Z,99285.78
2024-03-26T01:47:00.338Z,99282.61
2024-03-26T01:49:34.687Z,99275.67
2024-03-26T01:52:09.840Z,99276.63
2024-03-26T01:54:41.551Z,99270.73
2024-03-26T01:57:12.152Z,99267.92
2024-03-26T01:59:42.143Z,99260.42
2024-03-26T02:02:11.576Z,99258.91
2024-03-26T02:04:41.935Z,99254.81
2024-03-26T02:07:11.437Z,99250.84
2024-03-26T02:09:40.959Z,99244.83
2024-03-26T02:12:10.440Z,99239.70
2024-03-26T02:14:39.962Z,99237.56
2024-03-26T02:17:11.719Z,99231.55
2024-03-26T02:19:43.563Z,99226.63
2024-03-26T02:22:12.981Z,99226.70
2024-03-26T02:24:42.481Z,99222.29
2024-03-26T02:27:11.990Z,99217.94
2024-03-26T02:29:41.452Z,99216.48
2024-03-26T02:32:13.342Z,99208.35
2024-03-26T02:34:42.842Z,99201.45
2024-03-26T02:37:14.561Z,99200.30
2024-03-26T02:39:43.953Z,99196.35
2024-03-26T02:42:16.565Z,99193.92
2024-03-26T02:44:46.024Z,99191.98
2024-03-26T02:47:15.498Z,99190.06
2024-03-26T02:49:47.245Z,99184.84
2024-03-26T02:52:16.869Z,99180.33
2024-03-26T02:54:48.858Z,99179.22
2024-03-26T02:57:20.830Z,99171.56
2024-03-26T02:59:52.742Z,99170.96
2024-03-26T03:02:22.291Z,99165.41
2024-03-26T03:04:51.961Z,99163.27
2024-03-26T03:07:23.533Z,99164.33
2024-03-26T03:09:53.007Z,99160.79
2024-03-26T03:12:24.888Z,99152.64
2024-03-26T03:14:54.396Z,99149.30
2024-03-26T03:17:23.902Z,99151.43
2024-03-26T03:19:53.331Z,99145.64
2024-03-26T03:22:22.875Z,99142.65
2024-03-26T03:24:52.348Z,99140.67
2024-03-26T03:27:21.778Z,99139.23
2024-03-26T03:29:53.653Z,99133.37
2024-03-26T03:32:23.137Z,99135.38
2024-03-26T03:34:52.677Z,99133.52
2024-03-26T03:37:24.826Z,99131.76
2024-03-26T03:39:54.179Z,99128.55
2024-03-26T03:42:28.191Z,99125.89
2024-03-26T03:44:57.637Z,99121.42
2024-03-26T03:47:27.113Z,99120.83
2024-03-26T03:49:56.571Z,99121.54
2024-03-26T03:52:26.414Z,99116.09
2024-03-26T03:54:58.029Z,99112.33
2024-03-26T03:57:27.812Z,99113.55
2024-03-26T03:59:57.232Z,99110.20
2024-03-26T04:02:26.715Z,99108.98
2024-03-26T04:04:56.382Z,99105.98
2024-03-26T04:07:25.916Z,99101.72
2024-03-26T04:09:55.702Z,99102.15
2024-03-26T04:12:27.326Z,99098.16
2024-03-26T04:14:56.951Z,99096.01
2024-03-26T04:17:28.910Z,99094.55
2024-03-26T04:19:59.367Z,99095.55
2024-03-26T04:22:28.831Z,99089.99
2024-03-26T04:25:02.616Z,99086.08
2024-03-26T04:27:32.014Z,99086.94
2024-03-26T04:30:01.459Z,99083.23
2024-03-26T04:32:30.968Z,99078.77
2024-03-26T04:35:02.785Z,99078.88
2024-03-26T04:37:34.621Z,99079.12
2024-03-26T04:40:06.936Z,99076.75
2024-03-26T04:42:36.486Z,99076.67
2024-03-26T04:45:07.064Z,99080.39
2024-03-26T04:47:36.710Z,99073.73
2024-03-26T04:50:09.461Z,99075.89
2024-03-26T04:52:38.905Z,99073.54
2024-03-26T04:55:11.566Z,99074.94
2024-03-26T04:57:41.050Z,99075.34
2024-03-26T05:00:14.994Z,99072.41
2024-03-26T05:02:45.483Z,99076.73
2024-03-26T05:05:17.091Z,99069.34
2024-03-26T05:07:46.616Z,99073.29
2024-03-26T05:10:16.186Z,99070.45
2024-03-26T05:12:45.782Z,99068.86
2024-03-26T05:15:15.475Z,99069.23
2024-03-26T05:17:47.042Z,99067.64
2024-03-26T05:20:16.821Z,99069.25
2024-03-26T05:22:48.295Z,99069.60
2024-03-26T05:25:20.284Z,99066.80
2024-03-26T05:27:52.132Z,99063.78
2024-03-26T05:30:21.736Z,99065.70
2024-03-26T05:32:53.684Z,99065.39
2024-03-26T05:35:25.370Z,99062.88
2024-03-26T05:37:55.557Z,99062.42
2024-03-26T05:40:25.085Z,99060.48
2024-03-26T05:42:54.547Z,99061.40
2024-03-26T05:45:24.521Z,99059.47
2024-03-26T05:47:56.374Z,99060.34
2024-03-26T05:50:25.906Z,99057.89
2024-03-26T05:52:59.091Z,99054.71
2024-03-26T05:55:30.688Z,99053.30
2024-03-26T05:58:00.183Z,99052.80
2024-03-26T06:00:32.000Z,99054.40
2024-03-26T06:03:04.126Z,99049.77
2024-03-26T06:05:35.650Z,99051.77
2024-03-26T06:08:08.466Z,99057.09
2024-03-26T06:10:38.042Z,99059.59
2024-03-26T06:13:09.871Z,99061.70
2024-03-26T06:15:39.354Z,99057.72
2024-03-26T06:18:08.910Z,99057.12
2024-03-26T06:20:39.205Z,99053.88
2024-03-26T06:23:08.861Z,99052.38
2024-03-26T06:25:38.519Z,99051.11
2024-03-26T06:28:08.389Z,99055.45
2024-03-26T06:30:38.459Z,99055.25
2024-03-26T06:33:08.003Z,99051.00
2024-03-26T06:35:37.462Z,99046.14
2024-03-26T06:38:09.796Z,99045.27
2024-03-26T06:40:39.773Z,99044.52
2024-03-26T06:43:09.261Z,99042.88
2024-03-26T06:45:38.725Z,99040.40
2024-03-26T06:48:09.474Z,99037.25
2024-03-26T06:50:38.914Z,99039.08
2024-03-26T06:53:11.171Z,99040.76
2024-03-26T06:55:40.654Z,99039.09
2024-03-26T06:58:11.385Z,99039.05
2024-03-26T07:00:40.881Z,99038.13
2024-03-26T07:03:11.381Z,99036.95
2024-03-26T07:05:40.895Z,99032.63
2024-03-26T07:08:12.857Z,99032.86
2024-03-26T07:10:44.580Z,99032.77
2024-03-26T07:13:14.022Z,99030.95
2024-03-26T07:15:43.470Z,99032.67
2024-03-26T07:18:12.983Z,99035.80
2024-03-26T07:20:42.416Z,99032.48
2024-03-26T07:23:11.886Z,99023.41
2024-03-26T07:25:44.230Z,99022.50
2024-03-26T07:28:13.669Z,99016.71
2024-03-26T07:30:43.274Z,99014.48
2024-03-26T07:33:15.118Z,99010.22
2024-03-26T07:35:44.655Z,99012.58
2024-03-26T07:38:14.194Z,99004.95
2024-03-26T07:40:45.826Z,99008.20
2024-03-26T07:43:21.746Z,99008.83
2024-03-26T07:45:55.898Z,99004.52
2024-03-26T07:48:26.821Z,99000.40
2024-03-26T07:50:56.812Z,99003.39
2024-03-26T07:53:26.420Z,99003.22
2024-03-26T07:55:55.900Z,98999.15
2024-03-26T07:58:27.907Z,99000.17
2024-03-26T08:00:57.543Z,98994.84
2024-03-26T08:03:27.672Z,98998.97
2024-03-26T08:05:57.203Z,99000.46
2024-03-26T08:08:27.065Z,99002.42
2024-03-26T08:10:56.796Z,99000.43
2024-03-26T08:13:29.492Z,99001.81
2024-03-26T08:15:59.108Z,98999.73
2024-03-26T08:18:29.173Z,98997.59
2024-03-26T08:21:01.532Z,98998.13
2024-03-26T08:23:31.024Z,98993.05
2024-03-26T08:26:00.514Z,98988.09
2024-03-26T08:28:32.490Z,98989.41
2024-03-26T08:31:04.505Z,98989.71
2024-03-26T08:33:34.244Z,98989.09
2024-03-26T08:36:05.908Z,98983.67
2024-03-26T08:38:39.607Z,98980.83
2024-03-26T08:41:09.144Z,98978.02
2024-03-26T08:43:38.669Z,98978.02
2024-03-26T08:46:08.169Z,98970.29
2024-03-26T08:48:37.631Z,98965.98
2024-03-26T08:51:07.301Z,98960.98
2024-03-26T08:53:39.067Z,98958.89
2024-03-26T08:56:19.133Z,98955.34
2024-03-26T08:58:55.071Z,98952.83
2024-03-26T09:01:24.606Z,98953.86
2024-03-26T09:03:56.768Z,98949.02
2024-03-26T09:06:28.557Z,98955.36
2024-03-26T09:08:59.129Z,98953.34
2024-03-26T09:11:28.752Z,98950.77
2024-03-26T09:14:00.922Z,98952.91
2024-03-26T09:16:30.436Z,98952.18
2024-03-26T09:19:01.793Z,98951.75
2024-03-26T09:21:32.663Z,98956.88
2024-03-26T09:24:02.800Z,98955.11
2024-03-26T09:26:34.512Z,98954.38
2024-03-26T09:29:04.653Z,98952.48
2024-03-26T09:31:36.702Z,98945.22
2024-03-26T09:34:06.262Z,98948.91
2024-03-26T09:36:39.406Z,98945.73
2024-03-26T09:39:10.643Z,98941.64
2024-03-26T09:41:40.781Z,98940.72
2024-03-26T09:44:11.693Z,98938.59
2024-03-26T09:46:43.902Z,98938.86
2024-03-26T09:49:14.768Z,98935.38
2024-03-26T09:51:47.680Z,98932.23
2024-03-26T09:54:18.013Z,98930.48
2024-03-26T09:56:50.025Z,98928.83
2024-03-26T09:59:19.811Z,98924.87
2024-03-26T10:01:53.716Z,98928.12
2024-03-26T10:04:25.472Z,98927.34
2024-03-26T10:06:55.015Z,98927.49
2024-03-26T10:09:25.876Z,98923.58
2024-03-26T10:11:55.567Z,98923.03
2024-03-26T10:14:25.205Z,98918.10
2024-03-26T10:16:58.167Z,98917.89
2024-03-26T10:19:29.920Z,98914.54
2024-03-26T10:21:59.427Z,98912.04
2024-03-26T10:24:29.195Z,98908.64
2024-03-26T10:27:01.096Z,98905.02
2024-03-26T10:29:35.177Z,98906.63
2024-03-26T10:32:05.608Z,98902.30
2024-03-26T10:34:36.134Z,98906.86
2024-03-26T10:37:07.629Z,98903.08
2024-03-26T10:39:40.669Z,98899.20
2024-03-26T10:42:12.578Z,98899.02
2024-03-26T10:44:45.781Z,98892.32
2024-03-26T10:47:16.237Z,98888.95
2024-03-26T10:49:47.290Z,98889.27
2024-03-26T10:52:19.702Z,98883.00
2024-03-26T10:54:55.386Z,98883.80
2024-03-26T10:57:25.590Z,98883.54
2024-03-26T10:59:59.823Z,98882.31
2024-03-26T11:02:33.866Z,98876.15
2024-03-26T11:05:03.518Z,98869.33
2024-03-26T11:07:35.895Z,98867.88
2024-03-26T11:10:12.079Z,98861.02
2024-03-26T11:12:42.312Z,98859.65
2024-03-26T11:15:20.838Z,98853.46
2024-03-26T11:17:56.196Z,98850.20
2024-03-26T11:20:27.748Z,98848.07
2024-03-26T11:23:03.262Z,98842.70
2024-03-26T11:25:34.112Z,98843.92
2024-03-26T11:28:04.659Z,98835.54
2024-03-26T11:30:37.705Z,98833.42
2024-03-26T11:33:09.723Z,98831.21
2024-03-26T11:35:39.378Z,98826.22
2024-03-26T11:38:09.309Z,98825.18
2024-03-26T11:40:41.491Z,98820.95
2024-03-26T11:43:12.094Z,98821.30
2024-03-26T11:45:41.942Z,98822.45
2024-03-26T11:48:16.391Z,98821.88
2024-03-26T11:50:49.745Z,98819.06
2024-03-26T11:53:19.461Z,98815.40
2024-03-26T11:55:49.370Z,98811.04
2024-03-26T11:58:18.830Z,98812.58
2024-03-26T12:00:50.957Z,98813.53
2024-03-26T12:03:20.397Z,98813.08
2024-03-26T12:05:51.165Z,98810.98
2024-03-26T12:08:20.719Z,98811.05
2024-03-26T12:10:50.663Z,98802.64
2024-03-26T12:13:20.338Z,98799.52
2024-03-26T12:15:52.118Z,98799.43
2024-03-26T12:18:22.775Z,98794.27
2024-03-26T12:20:52.753Z,98792.40
2024-03-26T12:23:25.784Z,98784.20
2024-03-26T12:25:55.474Z,98769.23
2024-03-26T12:28:25.225Z,98765.00
2024-03-26T12:30:56.884Z,98761.98
2024-03-26T12:33:26.577Z,98758.79
2024-03-26T12:35:58.319Z,98757.96
2024-03-26T12:38:27.975Z,98758.16
2024-03-26T12:40:57.519Z,98758.77
2024-03-26T12:43:27.098Z,98754.99
2024-03-26T12:45:58.935Z,98751.43
2024-03-26T12:48:29.593Z,98744.58
2024-03-26T12:51:01.408Z,98744.08
2024-03-26T12:53:30.983Z,98740.45
2024-03-26T12:56:00.591Z,98732.20
2024-03-26T12:58:32.689Z,98722.17
2024-03-26T13:01:05.691Z,98717.14
2024-03-26T13:03:35.390Z,98712.92
2024-03-26T13:06:05.554Z,98710.86
2024-03-26T13:08:35.048Z,98708.64
2024-03-26T13:11:13.014Z,98703.92
2024-03-26T13:13:48.289Z,98696.39
2024-03-26T13:16:18.906Z,98691.50
2024-03-26T13:18:50.538Z,98687.61
2024-03-26T13:21:20.141Z,98687.25
2024-03-26T13:23:50.909Z,98687.41
2024-03-26T13:26:22.733Z,98684.72
2024-03-26T13:28:52.299Z,98682.05
2024-03-26T13:31:22.008Z,98681.89
2024-03-26T13:33:54.366Z,98680.92
2024-03-26T13:36:24.335Z,98674.32
2024-03-26T13:38:53.868Z,98665.01
2024-03-26T13:41:25.814Z,98654.64
2024-03-26T13:43:56.153Z,98654.39
2024-03-26T13:46:25.679Z,98647.55
2024-03-26T13:48:57.535Z,98649.41
2024-03-26T13:51:27.314Z,98643.00
2024-03-26T13:53:59.547Z,98642.92
2024-03-26T13:56:29.089Z,98636.60
2024-03-26T13:58:58.617Z,98636.65
2024-03-26T14:01:29.123Z,98634.84
2024-03-26T14:03:58.685Z,98630.52
2024-03-26T14:06:28.450Z,98628.33
2024-03-26T14:08:58.306Z,98626.90
2024-03-26T14:11:28.029Z,98620.14
2024-03-26T14:13:59.157Z,98622.08
2024-03-26T14:16:29.471Z,98617.92
2024-03-26T14:19:01.312Z,98616.53
2024-03-26T14:21:31.046Z,98615.91
2024-03-26T14:24:00.564Z,98607.98
2024-03-26T14:26:30.221Z,98602.58
2024-03-26T14:29:03.062Z,98600.05
2024-03-26T14:31:32.821Z,98596.52
2024-03-26T14:34:02.479Z,98595.72
2024-03-26T14:36:32.030Z,98600.27
2024-03-26T14:39:01.687Z,98596.92
2024-03-26T14:41:31.288Z,98592.19
2024-03-26T14:44:01.295Z,98589.83
2024-03-26T14:46:30.910Z,98584.20
2024-03-26T14:49:03.270Z,98575.13
2024-03-26T14:51:32.794Z,98568.90
2024-03-26T14:54:02.560Z,98563.48
2024-03-26T14:56:32.060Z,98555.30
2024-03-26T14:59:01.551Z,98550.71
2024-03-26T15:01:33.261Z,98551.98
2024-03-26T15:04:03.184Z,98548.50
2024-03-26T15:06:32.678Z,98542.75
2024-03-26T15:09:04.416Z,98539.21
2024-03-26T15:11:36.045Z,98532.16
2024-03-26T15:14:06.539Z,98526.76
2024-03-26T15:16:36.039Z,98518.86
2024-03-26T15:19:08.236Z,98513.56
2024-03-26T15:21:40.020Z,98506.95
2024-03-26T15:24:09.965Z,98506.33
2024-03-26T15:26:59.359Z,98501.86
2024-03-26T15:29:47.653Z,98499.13
2024-03-26T15:32:22.273Z,98495.77
2024-03-26T15:34:53.244Z,98492.48
2024-03-26T15:37:27.676Z,98492.32
2024-03-26T15:39:57.285Z,98490.63
2024-03-26T15:42:26.791Z,98488.89
2024-03-26T15:44:56.293Z,98487.12
2024-03-26T15:47:29.433Z,98479.45
2024-03-26T15:50:04.013Z,98477.41
2024-03-26T15:52:34.343Z,98472.11
2024-03-26T15:55:04.195Z,98465.89
2024-03-26T15:57:33.698Z,98463.09
2024-03-26T16:00:03.690Z,98458.32
2024-03-26T16:02:33.190Z,98454.16
2024-03-26T16:05:02.745Z,98451.47
2024-03-26T16:07:32.319Z,98448.23
2024-03-26T16:10:15.015Z,98444.98
2024-03-26T16:12:53.878Z,98437.08
2024-03-26T16:15:25.904Z,98436.75
2024-03-26T16:17:57.666Z,98428.75
2024-03-26T16:20:27.247Z,98425.70
2024-03-26T16:22:56.783Z,98425.30
2024-03-26T16:25:26.326Z,98420.95
2024-03-26T16:27:55.845Z,98423.66
2024-03-26T16:30:27.718Z,98424.10
2024-03-26T16:32:59.633Z,98426.38
2024-03-26T16:35:29.197Z,98434.54
2024-03-26T16:37:58.691Z,98431.02
2024-03-26T16:40:28.219Z,98422.20
2024-03-26T16:42:57.723Z,98424.33
2024-03-26T16:45:27.275Z,98423.93
2024-03-26T16:47:59.380Z,98421.68
2024-03-26T16:50:31.437Z,98421.69
2024-03-26T16:53:01.207Z,98417.33
2024-03-26T16:55:30.689Z,98414.74
2024-03-26T16:58:00.434Z,98413.31
2024-03-26T17:00:33.241Z,98414.06
2024-03-26T17:03:05.163Z,98413.85
2024-03-26T17:05:38.891Z,98414.71
2024-03-26T17:08:10.502Z,98412.27
2024-03-26T17:10:43.291Z,98414.41
2024-03-26T17:13:15.486Z,98410.59
2024-03-26T17:15:45.242Z,98417.13
2024-03-26T17:18:17.178Z,98416.73
2024-03-26T17:20:46.837Z,98413.11
2024-03-26T17:23:16.800Z,98414.39
2024-03-26T17:25:46.749Z,98411.34
2024-03-26T17:28:16.538Z,98411.88
2024-03-26T17:30:51.603Z,98411.98
2024-03-26T17:33:23.211Z,98407.79
2024-03-26T17:35:52.795Z,98404.41
2024-03-26T17:38:22.283Z,98404.98
2024-03-26T17:40:51.813Z,98401.70
2024-03-26T17:43:25.096Z,98401.94
2024-03-26T17:45:54.666Z,98398.18
2024-03-26T17:48:24.188Z,98400.06
2024-03-26T17:50:59.249Z,98393.95
2024-03-26T17:53:31.985Z,98390.45
2024-03-26T17:56:01.418Z,98380.15
2024-03-26T17:58:31.091Z,98387.56
2024-03-26T18:01:07.858Z,98385.38
2024-03-26T18:03:40.201Z,98388.86
2024-03-26T18:06:15.181Z,98385.86
2024-03-26T18:08:44.703Z,98387.55
2024-03-26T18:11:19.175Z,98387.86
2024-03-26T18:13:50.742Z,98386.25
2024-03-26T18:16:20.232Z,98391.21
2024-03-26T18:18:50.571Z,98392.52
2024-03-26T18:21:20.085Z,98396.66
2024-03-26T18:23:49.790Z,98393.87
2024-03-26T18:26:19.304Z,98395.38
2024-03-26T18:28:48.817Z,98392.59
2024-03-26T18:31:19.726Z,98394.65
2024-03-26T18:33:49.403Z,98396.23
2024-03-26T18:36:18.935Z,98398.34
2024-03-26T18:38:48.322Z,98398.02
2024-03-26T18:41:26.248Z,98397.55
2024-03-26T18:43:56.705Z,98397.80
2024-03-26T18:46:28.287Z,98401.11
2024-03-26T18:48:58.819Z,98402.48
2024-03-26T18:51:28.357Z,98400.95
2024-03-26T18:54:00.112Z,98399.11
2024-03-26T18:56:29.731Z,98403.27
2024-03-26T18:59:01.819Z,98401.67
2024-03-26T19:01:33.738Z,98406.30
2024-03-26T19:04:03.645Z,98400.20
2024-03-26T19:06:33.152Z,98399.09
2024-03-26T19:09:02.604Z,98403.45
2024-03-26T19:11:33.942Z,98402.52
2024-03-26T19:14:03.962Z,98406.54
2024-03-26T19:16:33.945Z,98403.73
2024-03-26T19:19:06.138Z,98407.27
2024-03-26T19:21:35.676Z,98404.51
2024-03-26T19:24:06.088Z,98411.27
2024-03-26T19:26:40.176Z,98418.79
2024-03-26T19:29:11.831Z,98419.23
2024-03-26T19:31:47.138Z,98420.38
2024-03-26T19:34:19.142Z,98418.91
2024-03-26T19:36:52.264Z,98421.77
2024-03-26T19:39:21.724Z,98424.18
2024-03-26T19:41:53.287Z,98423.95
2024-03-26T19:44:22.840Z,98420.24
2024-03-26T19:46:54.472Z,98421.66
2024-03-26T19:49:24.039Z,98425.17
2024-03-26T19:51:53.562Z,98424.80
2024-03-26T19:54:23.181Z,98431.55
2024-03-26T19:56:52.640Z,98427.99
2024-03-26T19:59:22.244Z,98430.23
2024-03-26T20:01:52.068Z,98429.17
2024-03-26T20:04:21.517Z,98430.14
2024-03-26T20:06:52.874Z,98431.41
2024-03-26T20:09:22.401Z,98438.91
2024-03-26T20:11:52.515Z,98438.19
2024-03-26T20:14:21.983Z,98436.35
2024-03-26T20:16:54.074Z,98440.20
2024-03-26T20:19:23.584Z,98438.05
2024-03-26T20:21:54.710Z,98435.14
2024-03-26T20:24:24.534Z,98437.06
2024-03-26T20:26:57.725Z,98430.10
2024-03-26T20:29:27.174Z,98430.27
2024-03-26T20:31:56.608Z,98430.98
2024-03-26T20:34:28.412Z,98421.70
2024-03-26T20:37:01.829Z,98421.16
2024-03-26T20:39:31.487Z,98417.01
2024-03-26T20:42:01.172Z,98415.09
2024-03-26T20:44:31.754Z,98414.31
2024-03-26T20:47:01.254Z,98416.06
2024-03-26T20:49:30.773Z,98412.31
2024-03-26T20:52:02.886Z,98414.57
2024-03-26T20:54:32.432Z,98410.85
2024-03-26T20:57:05.422Z,98408.23
2024-03-26T20:59:35.375Z,98406.41
2024-03-26T21:02:05.032Z,98402.71
2024-03-26T21:04:35.429Z,98397.90
2024-03-26T21:07:08.980Z,98394.21
2024-03-26T21:09:39.879Z,98391.49
2024-03-26T21:12:09.747Z,98393.55
2024-03-26T21:14:41.591Z,98385.39
2024-03-26T21:17:16.711Z,98386.96
2024-03-26T21:19:49.393Z,98385.09
2024-03-26T21:22:18.865Z,98379.87
2024-03-26T21:24:53.998Z,98382.23
2024-03-26T21:27:23.528Z,98380.56
2024-03-26T21:29:53.054Z,98376.35
2024-03-26T21:32:22.605Z,98372.59
2024-03-26T21:34:52.601Z,98370.33
2024-03-26T21:37:22.191Z,98365.61
2024-03-26T21:39:53.779Z,98364.48
2024-03-26T21:42:23.453Z,98360.14
2024-03-26T21:44:55.577Z,98357.98
2024-03-26T21:47:25.146Z,98353.10
2024-03-26T21:49:54.621Z,98357.73
2024-03-26T21:52:24.247Z,98360.48
2024-03-26T21:54:56.714Z,98359.11
2024-03-26T21:57:28.294Z,98356.71
2024-03-26T21:59:59.087Z,98357.92
2024-03-26T22:02:28.539Z,98362.13
2024-03-26T22:04:58.125Z,98362.02
2024-03-26T22:07:29.835Z,98355.36
2024-03-26T22:10:02.234Z,98351.51
2024-03-26T22:12:32.178Z,98356.13
2024-03-26T22:15:01.825Z,98353.52
2024-03-26T22:17:31.464Z,98352.42
2024-03-26T22:20:05.968Z,98348.48
2024-03-26T22:22:36.646Z,98349.39
2024-03-26T22:25:09.854Z,98343.33
2024-03-26T22:27:39.628Z,98337.92
2024-03-26T22:30:12.629Z,98334.66
2024-03-26T22:32:42.603Z,98334.98
2024-03-26T22:35:12.633Z,98335.42
2024-03-26T22:37:43.330Z,98332.16
2024-03-26T22:40:17.637Z,98336.03
2024-03-26T22:42:48.508Z,98329.83
2024-03-26T22:45:20.511Z,98326.60
2024-03-26T22:47:50.244Z,98328.46
2024-03-26T22:50:19.922Z,98325.71
2024-03-26T22:52:49.487Z,98323.00
2024-03-26T22:55:24.164Z,98317.20
2024-03-26T22:57:52.158Z,98315.02
2024-03-26T23:00:23.252Z,98317.38
2024-03-26T23:02:55.347Z,98319.63
2024-03-26T23:05:24.923Z,98324.84
2024-03-26T23:07:54.478Z,98319.83
2024-03-26T23:10:24.058Z,98312.21
2024-03-26T23:12:54.269Z,98307.52
2024-03-26T23:15:25.742Z,98307.49
2024-03-26T23:17:57.879Z,98307.20
2024-03-26T23:20:27.440Z,98305.05
2024-03-26T23:22:57.238Z,98301.64
2024-03-26T23:25:26.834Z,98298.61
2024-03-26T23:27:58.675Z,98294.64
2024-03-26T23:30:28.642Z,98291.61
2024-03-26T23:32:58.224Z,98288.04
2024-03-26T23:35:28.496Z,98286.02
2024-03-26T23:37:58.118Z,98280.17
2024-03-26T23:40:30.285Z,98282.45
2024-03-26T23:42:59.954Z,98285.27
2024-03-26T23:45:30.339Z,98290.88
2024-03-26T23:48:02.187Z,98285.40
2024-03-26T23:50:34.122Z,98286.52
2024-03-26T23:53:03.869Z,98285.91
2024-03-26T23:55:35.818Z,98287.02
2024-03-26T23:58:05.816Z,98282.88
